SGEN

Encarnación Airport

Encarnación, Paraguay
TAF SGEN 212229Z 2200/2300 07005KT CAVOK TX33/2219Z TN21/2209Z BECMG 2215/2218 02012KT 9999 SCT027 BECMG 2223/2300 09004KT CAVOK
Issued Valid From Valid To
Sep-21 @ 22:29 UTC
(5 hours ago)
Sep-22 @ 00:00 UTC
(3 hours ago)
Sep-23 @ 00:00 UTC
(in 21 hours)
to
to
to
TAF SGEN 212229Z 2200/2300 07005KT CAVOK TX33/2219Z TN21/2209Z BECMG 2215/2218 02012KT 9999 SCT027 BECMG 2223/2300 09004KT CAVOK
Issued Sep-21 @ 22:29 UTC
(5 hours ago)
Valid From Sep-22 @ 00:00 UTC
(3 hours ago)
Valid To Sep-23 @ 00:00 UTC
(in 21 hours)
-
-
-